Time;durP1;ratioP1;P1;durP2;ratioP2;P2;SDS_P1;SDS_P2;PMS_P1;PMS_P2;Temp;Humidity;BMP_temperature;BMP_pressure;BME280_temperature;BME280_humidity;BME280_pressure;Samples;Min_cycle;Max_cycle;Signal;HPM_P1;HPM_P2
2021/01/21 00:01:22;;;;;;;1.98;1.08;;;6.20;99.90;;;;;;4860888;28;20243;-87
2021/01/21 00:03:50;;;;;;;3.58;1.27;;;6.20;99.90;;;;;;4875317;28;20088;-88
2021/01/21 00:06:16;;;;;;;3.10;1.25;;;6.10;99.90;;;;;;4872924;28;20133;-87
2021/01/21 00:08:40;;;;;;;1.75;0.98;;;6.20;99.90;;;;;;4865546;28;20100;-88
2021/01/21 00:11:04;;;;;;;3.92;1.20;;;6.20;99.90;;;;;;4861829;28;25228;-87
2021/01/21 00:13:27;;;;;;;4.50;1.10;;;6.10;99.90;;;;;;4873722;28;20523;-87
2021/01/21 00:15:50;;;;;;;11.45;1.52;;;;;;;;;;4867127;28;20098;-87
2021/01/21 00:18:20;;;;;;;4.13;1.38;;;6.10;99.90;;;;;;4874275;28;25319;-87
2021/01/21 00:20:44;;;;;;;3.00;1.17;;;6.00;99.90;;;;;;4871882;28;20096;-87
2021/01/21 00:23:09;;;;;;;3.03;1.25;;;6.00;99.90;;;;;;4871127;28;20138;-87
2021/01/21 00:25:35;;;;;;;4.75;1.30;;;5.80;99.90;;;;;;4873719;28;20519;-87
2021/01/21 00:28:01;;;;;;;4.43;1.08;;;5.80;99.90;;;;;;4869680;28;20462;-87
2021/01/21 00:30:31;;;;;;;3.13;1.20;;;5.80;99.90;;;;;;4854574;28;20092;-87
2021/01/21 00:33:04;;;;;;;3.35;1.00;;;5.80;99.90;;;;;;4853556;28;20182;-86
2021/01/21 00:35:33;;;;;;;2.13;0.82;;;5.80;99.90;;;;;;4870123;28;20608;-87
2021/01/21 00:38:15;;;;;;;2.25;1.30;;;5.80;99.90;;;;;;4866644;28;20111;-86
2021/01/21 00:40:41;;;;;;;4.22;1.00;;;5.70;99.90;;;;;;4864940;28;20179;-87
2021/01/21 00:43:17;;;;;;;3.17;1.20;;;5.50;99.90;;;;;;4855965;28;20092;-89
2021/01/21 00:45:42;;;;;;;3.05;1.25;;;5.50;99.90;;;;;;4869661;28;20102;-86
2021/01/21 00:48:16;;;;;;;3.95;1.27;;;5.40;99.90;;;;;;4869335;28;20147;-87
2021/01/21 00:50:57;;;;;;;2.47;1.33;;;5.30;99.90;;;;;;4870974;28;20091;-86
2021/01/21 00:53:20;;;;;;;3.20;1.27;;;5.30;99.90;;;;;;4862203;28;20103;-87
2021/01/21 00:55:49;;;;;;;2.30;1.13;;;5.20;99.90;;;;;;4872924;28;20096;-87
2021/01/21 00:58:13;;;;;;;3.85;1.48;;;5.10;99.90;;;;;;4867034;28;20444;-86
2021/01/21 01:00:38;;;;;;;4.10;1.48;;;;;;;;;;4866118;28;20096;-86
2021/01/21 01:03:01;;;;;;;2.40;1.37;;;5.20;99.90;;;;;;4859389;28;20114;-85
2021/01/21 01:05:43;;;;;;;4.82;1.50;;;5.10;99.90;;;;;;4871321;28;20084;-87
2021/01/21 01:08:13;;;;;;;3.55;1.40;;;5.00;99.90;;;;;;4865927;28;20096;-86
2021/01/21 01:10:38;;;;;;;5.93;1.15;;;5.10;99.90;;;;;;4854395;28;20096;-86
2021/01/21 01:13:02;;;;;;;3.15;1.20;;;5.10;99.90;;;;;;4849854;28;23236;-86
2021/01/21 01:15:33;;;;;;;7.95;1.25;;;5.20;99.90;;;;;;4861545;28;20101;-86
2021/01/21 01:17:59;;;;;;;7.97;1.58;;;5.20;99.90;;;;;;4874677;28;20083;-87
2021/01/21 01:20:30;;;;;;;5.07;1.42;;;5.30;99.90;;;;;;4872709;28;20113;-86
2021/01/21 01:22:54;;;;;;;2.13;1.10;;;5.30;99.90;;;;;;4863736;28;20087;-86
2021/01/21 01:25:29;;;;;;;2.47;1.10;;;5.30;99.90;;;;;;4873274;28;20130;-86
2021/01/21 01:27:53;;;;;;;3.08;1.42;;;5.20;99.90;;;;;;4868380;28;20197;-86
2021/01/21 01:30:18;;;;;;;2.38;1.10;;;5.20;99.90;;;;;;4870902;28;20149;-86
2021/01/21 01:32:41;;;;;;;5.97;1.17;;;5.20;99.90;;;;;;4872052;28;20100;-86
2021/01/21 01:35:11;;;;;;;2.65;1.20;;;5.10;99.90;;;;;;4871706;28;20485;-86
2021/01/21 01:37:34;;;;;;;3.22;1.33;;;5.00;99.90;;;;;;4866601;28;20106;-87
2021/01/21 01:39:59;;;;;;;3.20;1.20;;;5.00;99.90;;;;;;4860346;28;20112;-87
2021/01/21 01:42:22;;;;;;;4.70;1.45;;;4.90;99.90;;;;;;4870473;28;20108;-86
2021/01/21 01:44:46;;;;;;;6.03;1.40;;;4.90;99.90;;;;;;4870607;28;20096;-87
2021/01/21 01:47:11;;;;;;;3.17;1.30;;;4.80;99.90;;;;;;4871182;28;20518;-85
2021/01/21 01:49:35;;;;;;;5.65;1.10;;;4.60;99.90;;;;;;4862605;28;20102;-87
2021/01/21 01:52:00;;;;;;;3.25;1.70;;;4.60;99.90;;;;;;4861885;28;20088;-87
2021/01/21 01:54:25;;;;;;;5.25;1.50;;;4.60;99.90;;;;;;4861079;28;20080;-87
2021/01/21 01:56:49;;;;;;;4.97;1.90;;;4.50;99.90;;;;;;4861473;28;20088;-88
2021/01/21 01:59:13;;;;;;;3.35;1.63;;;4.40;99.90;;;;;;4867817;28;20088;-86
2021/01/21 02:01:43;;;;;;;3.72;1.20;;;4.40;99.90;;;;;;4866110;28;20561;-87
2021/01/21 02:04:06;;;;;;;3.90;1.27;;;4.40;99.90;;;;;;4858715;28;20092;-87
2021/01/21 02:08:42;;;;;;;4.13;1.13;;;4.30;99.90;;;;;;4898793;27;21004;-84
2021/01/21 02:11:26;;;;;;;2.80;1.40;;;4.30;99.90;;;;;;4898840;28;20095;-85
2021/01/21 02:14:01;;;;;;;3.65;1.50;;;4.20;99.90;;;;;;4901290;28;20083;-83
2021/01/21 02:16:41;;;;;;;2.53;1.45;;;4.10;99.90;;;;;;4905976;28;20529;-85
2021/01/21 02:23:03;;;;;;;3.42;1.45;;;4.20;99.90;;;;;;4902662;28;20087;-85
2021/01/21 02:25:37;;;;;;;3.50;1.20;;;4.30;99.90;;;;;;4907946;28;25112;-85
2021/01/21 02:28:29;;;;;;;6.13;1.50;;;4.30;99.90;;;;;;4908578;28;20588;-85
2021/01/21 02:31:03;;;;;;;4.07;1.50;;;4.30;99.90;;;;;;4901686;28;20095;-85
2021/01/21 02:33:45;;;;;;;4.05;1.35;;;4.30;99.90;;;;;;4891265;28;20129;-84
2021/01/21 02:36:19;;;;;;;3.55;1.52;;;4.30;99.90;;;;;;4894870;28;20083;-83
2021/01/21 02:38:46;;;;;;;1.60;1.13;;;4.20;99.90;;;;;;4913842;28;20746;-84
2021/01/21 02:41:10;;;;;;;3.00;1.60;;;4.20;99.90;;;;;;4919574;28;20506;-85
2021/01/21 02:43:33;;;;;;;5.45;1.58;;;4.20;99.90;;;;;;4910432;28;20590;-85
2021/01/21 02:46:02;;;;;;;3.00;1.20;;;4.20;99.90;;;;;;4922863;28;20091;-85
2021/01/21 02:48:32;;;;;;;2.17;1.42;;;4.20;99.90;;;;;;4910847;28;20086;-85
2021/01/21 02:51:05;;;;;;;2.05;1.10;;;4.20;99.90;;;;;;4903349;28;20095;-85
2021/01/21 02:53:30;;;;;;;4.38;1.58;;;4.20;99.90;;;;;;4911317;28;20090;-86
2021/01/21 02:56:07;;;;;;;4.75;1.45;;;4.10;99.90;;;;;;4912470;28;20095;-84
2021/01/21 02:58:35;;;;;;;3.47;1.20;;;4.10;99.90;;;;;;4890887;28;20086;-85
2021/01/21 03:01:02;;;;;;;3.20;1.50;;;4.00;99.90;;;;;;4905616;28;20106;-85
2021/01/21 03:03:28;;;;;;;3.45;1.58;;;4.10;99.90;;;;;;4906763;28;20147;-84
2021/01/21 03:06:06;;;;;;;2.92;1.38;;;4.10;99.90;;;;;;4923720;28;20157;-85
2021/01/21 03:08:30;;;;;;;3.03;1.17;;;4.10;99.90;;;;;;4907561;28;20098;-84
2021/01/21 03:11:08;;;;;;;3.55;1.65;;;4.10;99.90;;;;;;4918525;28;20095;-84
2021/01/21 03:13:31;;;;;;;4.63;1.45;;;;;;;;;;4908464;28;20083;-85
2021/01/21 03:15:55;;;;;;;5.00;1.30;;;4.10;99.90;;;;;;4916634;28;20091;-85
2021/01/21 03:18:22;;;;;;;5.15;1.80;;;4.10;99.90;;;;;;4907126;28;20091;-85
2021/01/21 03:20:57;;;;;;;2.38;1.17;;;4.10;99.90;;;;;;4898378;28;20170;-84
2021/01/21 03:23:23;;;;;;;6.32;1.35;;;4.00;99.90;;;;;;4900136;28;20082;-84
2021/01/21 03:25:56;;;;;;;3.03;1.00;;;4.00;99.90;;;;;;4904309;28;20091;-85
2021/01/21 03:28:21;;;;;;;2.58;1.27;;;4.00;99.90;;;;;;4904073;28;20411;-84
2021/01/21 03:30:49;;;;;;;;;;;4.00;99.90;;;;;;4890391;28;20556;-85
2021/01/21 03:33:31;;;;;;;6.97;1.40;;;4.00;99.90;;;;;;4906814;28;19971;-84
2021/01/21 03:35:54;;;;;;;7.57;1.48;;;3.90;99.90;;;;;;4881723;28;20091;-85
2021/01/21 03:38:19;;;;;;;3.05;1.40;;;3.90;99.90;;;;;;4874509;28;20202;-84
2021/01/21 03:40:44;;;;;;;2.17;0.90;;;;;;;;;;4872397;28;20091;-84
2021/01/21 03:43:16;;;;;;;3.77;1.30;;;3.80;99.90;;;;;;4882738;28;20539;-84
2021/01/21 03:45:59;;;;;;;1.75;1.00;;;3.90;99.90;;;;;;4883076;28;20099;-85
2021/01/21 03:48:24;;;;;;;2.92;1.10;;;3.90;99.90;;;;;;4882165;28;20079;-85
2021/01/21 03:50:50;;;;;;;2.88;1.10;;;3.90;99.90;;;;;;4890826;28;20092;-84
2021/01/21 03:53:15;;;;;;;3.78;1.42;;;;;;;;;;4895874;28;20083;-85
2021/01/21 03:55:38;;;;;;;3.17;1.13;;;3.80;99.90;;;;;;4897785;28;20525;-85
2021/01/21 03:58:10;;;;;;;3.63;1.50;;;3.80;99.90;;;;;;4902570;28;20091;-84
2021/01/21 04:00:33;;;;;;;6.05;1.38;;;3.80;99.90;;;;;;4893212;28;20489;-85
2021/01/21 04:03:00;;;;;;;2.65;1.23;;;3.90;99.90;;;;;;4896824;28;20095;-85
2021/01/21 04:05:23;;;;;;;3.67;1.40;;;4.10;99.90;;;;;;4893007;28;20178;-85
2021/01/21 04:07:46;;;;;;;3.80;1.17;;;5.10;99.90;;;;;;4893547;28;20087;-87
2021/01/21 04:10:16;;;;;;;3.67;1.10;;;4.30;99.90;;;;;;4903131;28;20959;-85
2021/01/21 04:12:41;;;;;;;6.32;1.45;;;4.30;99.90;;;;;;4897295;28;20122;-85
2021/01/21 04:15:08;;;;;;;1.92;1.10;;;4.30;99.90;;;;;;4908367;28;20217;-85
2021/01/21 04:17:43;;;;;;;3.05;1.17;;;4.30;99.90;;;;;;4881085;28;20137;-85
2021/01/21 04:20:07;;;;;;;3.45;1.00;;;4.20;99.90;;;;;;4888501;28;20097;-86
2021/01/21 04:22:40;;;;;;;3.47;1.15;;;4.20;99.90;;;;;;4900851;28;20419;-85
2021/01/21 04:25:03;;;;;;;7.20;1.25;;;4.20;99.90;;;;;;4902350;28;20099;-85
2021/01/21 04:27:36;;;;;;;2.40;1.17;;;4.30;99.90;;;;;;4908691;28;20094;-85
2021/01/21 04:29:59;;;;;;;2.28;0.98;;;;;;;;;;4895773;28;20097;-85
2021/01/21 04:32:24;;;;;;;3.38;1.48;;;;;;;;;;4895555;28;20152;-86
2021/01/21 04:35:08;;;;;;;3.00;1.20;;;4.40;99.90;;;;;;4897657;28;25723;-84
2021/01/21 04:37:32;;;;;;;7.00;1.10;;;4.60;99.90;;;;;;4888361;28;20105;-85
2021/01/21 04:40:08;;;;;;;4.47;1.15;;;4.70;99.90;;;;;;4897409;28;20079;-85
2021/01/21 04:42:33;;;;;;;5.47;1.10;;;4.80;99.90;;;;;;4891015;28;20129;-85
2021/01/21 04:44:57;;;;;;;2.80;0.90;;;4.80;99.90;;;;;;4876321;28;20116;-85
2021/01/21 04:47:28;;;;;;;2.78;1.02;;;4.80;99.90;;;;;;4878454;28;21171;-85
2021/01/21 04:49:54;;;;;;;2.95;1.50;;;4.80;99.90;;;;;;4876724;28;20113;-85
2021/01/21 04:52:40;;;;;;;4.60;1.00;;;4.80;99.90;;;;;;4878329;28;20447;-85
2021/01/21 04:55:11;;;;;;;3.42;1.10;;;4.80;99.90;;;;;;4869145;28;20099;-85
2021/01/21 04:57:43;;;;;;;9.75;1.02;;;4.80;99.90;;;;;;4877824;28;20145;-85
2021/01/21 05:00:07;;;;;;;2.95;1.10;;;4.90;99.90;;;;;;4896544;28;20091;-85
2021/01/21 05:02:37;;;;;;;2.22;1.15;;;4.90;99.90;;;;;;4890439;28;20098;-86
2021/01/21 05:05:08;;;;;;;1.88;0.93;;;4.90;99.90;;;;;;4898819;28;20145;-86
2021/01/21 05:07:39;;;;;;;3.08;1.00;;;5.00;99.90;;;;;;4895320;28;20528;-84
2021/01/21 05:10:07;;;;;;;2.40;0.80;;;5.00;99.90;;;;;;4901823;28;20149;-84
2021/01/21 05:12:44;;;;;;;2.50;1.00;;;5.00;99.90;;;;;;4895789;28;20103;-84
2021/01/21 05:15:10;;;;;;;1.98;0.80;;;5.00;99.90;;;;;;4901554;28;20083;-84
2021/01/21 05:17:37;;;;;;;3.22;1.25;;;;;;;;;;4895112;28;20090;-86
2021/01/21 05:20:14;;;;;;;5.07;0.80;;;5.10;99.90;;;;;;4899886;28;20091;-85
2021/01/21 05:22:41;;;;;;;2.83;0.95;;;5.10;99.90;;;;;;4873455;28;20133;-84
2021/01/21 05:25:06;;;;;;;1.83;0.90;;;5.10;99.90;;;;;;4885005;28;20087;-85
2021/01/21 05:27:29;;;;;;;2.42;1.05;;;5.10;99.90;;;;;;4903536;28;20598;-86
2021/01/21 05:30:05;;;;;;;2.42;0.93;;;5.10;99.90;;;;;;4897571;28;20154;-86
2021/01/21 05:32:29;;;;;;;1.55;0.63;;;5.10;99.90;;;;;;4892905;28;20087;-85
2021/01/21 05:34:56;;;;;;;2.33;0.75;;;5.20;99.90;;;;;;4893379;28;20107;-85
2021/01/21 05:37:19;;;;;;;2.40;0.90;;;5.20;99.90;;;;;;4891252;28;20095;-85
2021/01/21 05:39:47;;;;;;;3.55;1.23;;;5.20;99.90;;;;;;4878944;28;20080;-85
2021/01/21 05:42:11;;;;;;;3.95;1.08;;;5.30;99.90;;;;;;4887820;28;20087;-85
2021/01/21 05:44:37;;;;;;;1.05;0.70;;;5.40;99.90;;;;;;4906572;28;23582;-85
2021/01/21 05:47:03;;;;;;;2.40;0.90;;;5.40;99.90;;;;;;4895851;28;20178;-86
2021/01/21 05:49:35;;;;;;;1.45;0.63;;;5.40;99.90;;;;;;4895092;28;20095;-86
2021/01/21 05:52:01;;;;;;;3.10;0.75;;;6.50;99.90;;;;;;4878797;28;20096;-86
2021/01/21 05:54:28;;;;;;;3.05;1.48;;;5.40;99.90;;;;;;4883860;28;20095;-86
2021/01/21 05:56:54;;;;;;;1.95;0.88;;;5.40;99.90;;;;;;4891161;28;20099;-86
2021/01/21 05:59:21;;;;;;;1.95;1.10;;;5.40;99.90;;;;;;4890686;28;20097;-85
2021/01/21 06:01:45;;;;;;;2.38;0.98;;;5.30;99.90;;;;;;4900699;28;20280;-85
2021/01/21 06:04:19;;;;;;;3.38;0.80;;;5.30;99.90;;;;;;4892999;28;20118;-85
2021/01/21 06:06:43;;;;;;;4.68;1.02;;;5.20;99.90;;;;;;4895793;28;20173;-85
2021/01/21 06:09:15;;;;;;;2.05;0.80;;;5.20;99.90;;;;;;4894439;28;20091;-85
2021/01/21 06:11:47;;;;;;;3.17;0.85;;;5.20;99.90;;;;;;4894535;28;20087;-84
2021/01/21 06:14:28;;;;;;;2.70;0.75;;;5.10;99.90;;;;;;4888604;28;20083;-85
2021/01/21 06:16:58;;;;;;;3.65;0.90;;;5.10;99.90;;;;;;4890587;28;20087;-86
2021/01/21 06:19:22;;;;;;;3.03;0.80;;;5.10;99.90;;;;;;4901998;28;20089;-86
2021/01/21 06:21:57;;;;;;;5.65;1.00;;;5.10;99.90;;;;;;4886591;28;20091;-85
2021/01/21 06:24:30;;;;;;;1.23;0.70;;;5.20;99.90;;;;;;4889263;28;20085;-84
2021/01/21 06:27:05;;;;;;;2.30;0.80;;;5.20;99.90;;;;;;4874522;28;20133;-85
2021/01/21 06:29:29;;;;;;;1.48;0.80;;;5.30;99.90;;;;;;4872515;28;20091;-86
2021/01/21 06:32:04;;;;;;;2.47;0.63;;;5.30;99.90;;;;;;4883645;28;20130;-86
2021/01/21 06:34:40;;;;;;;3.90;0.90;;;5.40;99.90;;;;;;4881606;28;20087;-85
2021/01/21 06:37:15;;;;;;;2.15;0.52;;;5.40;99.90;;;;;;4903217;28;20082;-85
2021/01/21 06:39:53;;;;;;;2.20;0.95;;;5.30;99.90;;;;;;4878742;28;20091;-86
2021/01/21 06:42:29;;;;;;;3.08;0.88;;;5.30;99.90;;;;;;4877607;28;20115;-85
2021/01/21 06:44:54;;;;;;;;;;;5.40;99.90;;;;;;4894838;28;20087;-85
2021/01/21 06:47:36;;;;;;;2.08;0.80;;;5.50;99.90;;;;;;4898215;28;19963;-84
2021/01/21 06:50:13;;;;;;;2.30;0.85;;;5.50;99.90;;;;;;4886459;28;20087;-86
2021/01/21 06:52:42;;;;;;;3.00;1.17;;;5.50;99.90;;;;;;4878957;28;20083;-86
2021/01/21 06:55:14;;;;;;;2.55;0.90;;;5.60;99.90;;;;;;4892726;28;20083;-85
2021/01/21 06:57:45;;;;;;;3.25;0.90;;;5.60;99.90;;;;;;4868692;28;20466;-84
2021/01/21 07:00:13;;;;;;;4.50;0.93;;;5.70;99.90;;;;;;4902727;28;20169;-86
2021/01/21 07:02:47;;;;;;;2.70;0.90;;;5.80;99.90;;;;;;4904889;28;20087;-85
2021/01/21 07:05:18;;;;;;;3.08;0.80;;;5.80;99.90;;;;;;4896247;28;20083;-84
2021/01/21 07:08:01;;;;;;;1.55;0.75;;;5.90;99.90;;;;;;4906285;28;20186;-85
2021/01/21 07:10:30;;;;;;;0.50;0.50;;;6.00;99.90;;;;;;4893668;28;20083;-85
2021/01/21 07:12:55;;;;;;;2.72;0.70;;;6.10;99.90;;;;;;4885451;28;20095;-85
2021/01/21 07:15:45;;;;;;;2.50;0.80;;;6.30;99.90;;;;;;4892645;28;20166;-87
2021/01/21 07:18:13;;;;;;;1.05;0.80;;;6.60;99.90;;;;;;4892167;28;20086;-85
2021/01/21 07:21:13;;;;;;;4.40;0.85;;;6.60;99.90;;;;;;4888486;28;20200;-86
2021/01/21 07:23:44;;;;;;;1.58;0.50;;;6.60;99.90;;;;;;4896277;28;20096;-86
2021/01/21 07:26:33;;;;;;;5.45;1.10;;;6.60;99.90;;;;;;4895454;28;20091;-88
2021/01/21 07:29:05;;;;;;;2.75;0.90;;;6.70;99.90;;;;;;4864405;28;20094;-87
2021/01/21 07:31:56;;;;;;;1.23;0.80;;;6.80;99.90;;;;;;4882304;28;20098;-87
2021/01/21 07:34:22;;;;;;;1.65;0.80;;;6.80;99.90;;;;;;4902149;28;20107;-86
2021/01/21 07:36:47;;;;;;;2.08;0.77;;;6.90;99.90;;;;;;4878694;28;20153;-87
2021/01/21 07:39:10;;;;;;;2.78;0.95;;;6.90;99.90;;;;;;4888244;28;20094;-85
2021/01/21 07:41:58;;;;;;;5.10;0.75;;;7.00;99.90;;;;;;4905779;28;20102;-86
2021/01/21 07:44:23;;;;;;;1.77;0.73;;;7.00;99.90;;;;;;4894610;28;20438;-86
2021/01/21 07:46:46;;;;;;;2.78;0.90;;;7.10;99.90;;;;;;4893444;28;20103;-86
2021/01/21 07:49:28;;;;;;;1.58;0.65;;;7.10;99.90;;;;;;4888249;28;20100;-87
2021/01/21 07:52:05;;;;;;;2.03;0.80;;;7.10;99.90;;;;;;4896091;28;20103;-88
2021/01/21 07:54:46;;;;;;;0.68;0.50;;;7.10;99.90;;;;;;4885659;28;20114;-87
2021/01/21 07:57:12;;;;;;;1.95;0.80;;;7.20;99.90;;;;;;4898677;28;20137;-87
2021/01/21 07:59:58;;;;;;;1.85;0.80;;;7.10;99.90;;;;;;4906132;28;20086;-86
2021/01/21 08:02:42;;;;;;;1.17;0.55;;;6.90;99.90;;;;;;4895895;28;20084;-87
2021/01/21 08:05:06;;;;;;;2.67;0.70;;;6.80;99.90;;;;;;4892047;28;20091;-86
2021/01/21 08:07:45;;;;;;;1.77;1.00;;;6.80;99.90;;;;;;4887022;28;20087;-86
2021/01/21 08:10:09;;;;;;;2.83;0.60;;;6.90;99.90;;;;;;4874106;28;20546;-86
2021/01/21 08:12:35;;;;;;;1.73;0.82;;;6.80;99.90;;;;;;4889344;28;20091;-87
2021/01/21 08:15:02;;;;;;;1.83;0.80;;;6.80;99.90;;;;;;4891342;28;20454;-85
2021/01/21 08:17:30;;;;;;;1.38;0.80;;;6.80;99.90;;;;;;4886552;28;20146;-86
2021/01/21 08:19:54;;;;;;;1.67;0.80;;;6.80;99.90;;;;;;4893188;28;20592;-86
2021/01/21 08:22:19;;;;;;;3.30;0.70;;;6.80;99.90;;;;;;4884939;28;20104;-86
2021/01/21 08:24:58;;;;;;;0.98;0.50;;;6.80;99.90;;;;;;4892730;28;20080;-84
2021/01/21 08:27:21;;;;;;;3.03;0.80;;;6.80;99.90;;;;;;4874542;28;20095;-86
2021/01/21 08:29:48;;;;;;;3.08;0.70;;;6.90;99.90;;;;;;4865724;28;20087;-88
2021/01/21 08:32:11;;;;;;;2.10;1.00;;;7.00;99.90;;;;;;4876869;28;20091;-85
2021/01/21 08:34:35;;;;;;;1.23;0.57;;;7.00;99.90;;;;;;4898664;28;20095;-85
2021/01/21 08:37:07;;;;;;;1.55;0.60;;;7.10;99.90;;;;;;4893178;28;20094;-85
2021/01/21 08:39:34;;;;;;;1.40;0.70;;;7.00;99.90;;;;;;4896711;28;20083;-85
2021/01/21 08:41:58;;;;;;;2.08;0.93;;;7.10;99.90;;;;;;4895907;28;20095;-86
2021/01/21 08:44:21;;;;;;;1.88;0.65;;;7.10;99.90;;;;;;4902349;28;20117;-86
2021/01/21 08:46:57;;;;;;;1.30;0.70;;;7.30;99.90;;;;;;4896426;28;20162;-86
2021/01/21 08:49:21;;;;;;;1.27;0.55;;;7.30;99.90;;;;;;4872237;28;20091;-85
2021/01/21 08:51:44;;;;;;;1.77;0.80;;;7.40;99.90;;;;;;4874922;28;20105;-85
2021/01/21 08:54:17;;;;;;;2.10;0.75;;;7.50;99.90;;;;;;4895492;28;20095;-85
2021/01/21 08:56:41;;;;;;;1.00;0.63;;;7.50;99.90;;;;;;4900436;28;20471;-84
2021/01/21 08:59:26;;;;;;;3.78;0.90;;;7.60;99.90;;;;;;4895585;28;20511;-85
2021/01/21 09:53:22;;;;;;;2.05;0.60;;;9.70;99.90;;;;;;4860499;28;20121;-87
2021/01/21 11:36:00;;;;;;;1.33;0.60;;;9.70;99.90;;;;;;4840745;28;20115;-83
2021/01/21 11:46:18;;;;;;;0.40;0.40;;;9.60;99.90;;;;;;4882664;28;20086;-85
2021/01/21 11:49:03;;;;;;;2.40;0.50;;;9.40;99.90;;;;;;4866854;28;20136;-84
2021/01/21 11:51:26;;;;;;;0.70;0.40;;;9.50;99.90;;;;;;4882874;28;20086;-85
2021/01/21 11:53:52;;;;;;;1.60;0.70;;;9.40;99.90;;;;;;4887149;28;20098;-88
2021/01/21 11:56:18;;;;;;;2.05;0.85;;;9.40;99.90;;;;;;4891795;28;20097;-86
2021/01/21 11:58:41;;;;;;;2.05;0.40;;;9.40;99.90;;;;;;4892650;28;20163;-86
2021/01/21 12:01:05;;;;;;;0.73;0.40;;;9.30;99.90;;;;;;4887262;28;20090;-87
2021/01/21 12:03:29;;;;;;;2.65;0.40;;;9.40;99.90;;;;;;4889496;28;20090;-85
2021/01/21 12:05:54;;;;;;;1.75;0.57;;;9.30;99.90;;;;;;4889545;28;20096;-85
2021/01/21 12:08:18;;;;;;;1.63;0.40;;;9.40;99.90;;;;;;4888596;28;20090;-84
2021/01/21 12:10:42;;;;;;;0.57;0.20;;;9.40;99.90;;;;;;4885875;28;20564;-88
2021/01/21 12:13:05;;;;;;;0.35;0.30;;;9.40;99.90;;;;;;4884737;28;20097;-85
2021/01/21 12:15:28;;;;;;;1.88;0.45;;;;;;;;;;4890479;28;20098;-85
2021/01/21 12:17:51;;;;;;;3.13;0.60;;;9.50;99.90;;;;;;4889580;28;20141;-86
2021/01/21 12:20:21;;;;;;;1.08;0.38;;;9.50;99.90;;;;;;4881448;28;20146;-86
2021/01/21 12:22:45;;;;;;;0.90;0.40;;;9.50;99.90;;;;;;4898777;28;20101;-84
2021/01/21 12:25:09;;;;;;;0.57;0.30;;;9.40;99.90;;;;;;4893830;28;20493;-84
2021/01/21 12:27:39;;;;;;;3.40;0.50;;;9.40;99.90;;;;;;4900167;28;20098;-85
2021/01/21 12:30:09;;;;;;;2.75;0.40;;;9.40;99.90;;;;;;4898584;28;20082;-85
2021/01/21 12:32:42;;;;;;;2.08;0.38;;;9.40;99.90;;;;;;4898711;28;20082;-86
2021/01/21 12:35:07;;;;;;;0.50;0.30;;;9.40;99.90;;;;;;4885392;28;20092;-85
2021/01/21 12:37:32;;;;;;;0.32;0.25;;;;;;;;;;4893922;28;20101;-85
2021/01/21 12:40:08;;;;;;;0.50;0.30;;;9.30;99.90;;;;;;4890210;28;20116;-86
2021/01/21 12:42:43;;;;;;;1.73;0.40;;;9.30;99.90;;;;;;4866752;28;20418;-84
2021/01/21 12:45:09;;;;;;;0.73;0.30;;;9.20;99.90;;;;;;4879047;28;20583;-85
2021/01/21 12:47:34;;;;;;;0.10;0.10;;;9.20;99.90;;;;;;4891248;28;20121;-84
2021/01/21 12:50:03;;;;;;;0.30;0.10;;;;;;;;;;4897858;28;20519;-85
2021/01/21 12:52:27;;;;;;;1.30;0.30;;;9.20;99.90;;;;;;4874561;28;20121;-85
2021/01/21 12:54:50;;;;;;;2.78;0.20;;;;;;;;;;4873648;28;20097;-87
2021/01/21 12:57:17;;;;;;;1.27;0.30;;;;;;;;;;4899703;28;20086;-86
2021/01/21 12:59:41;;;;;;;0.93;0.20;;;9.30;99.90;;;;;;4856899;28;20170;-83
2021/01/21 13:02:04;;;;;;;0.63;0.30;;;9.20;99.90;;;;;;4887154;28;20131;-83
2021/01/21 13:04:27;;;;;;;0.70;0.20;;;;;;;;;;4901938;28;20100;-84
2021/01/21 13:06:58;;;;;;;0.20;0.20;;;9.30;99.90;;;;;;4891874;28;20093;-84
2021/01/21 13:09:29;;;;;;;0.77;0.17;;;9.30;99.90;;;;;;4892017;28;20089;-82
2021/01/21 13:11:52;;;;;;;0.43;0.20;;;9.20;99.90;;;;;;4866140;28;22279;-85
2021/01/21 13:14:18;;;;;;;1.45;0.30;;;9.20;99.90;;;;;;4874749;28;20100;-82
2021/01/21 13:16:41;;;;;;;0.70;0.30;;;9.20;99.90;;;;;;4895131;28;20098;-83
2021/01/21 13:19:10;;;;;;;1.90;0.30;;;9.20;99.90;;;;;;4900457;28;20090;-83
2021/01/21 13:21:34;;;;;;;1.02;0.30;;;9.30;99.90;;;;;;4895822;28;20088;-84
2021/01/21 13:24:03;;;;;;;0.30;0.30;;;9.50;99.90;;;;;;4896825;28;20116;-84
2021/01/21 13:26:26;;;;;;;1.25;0.40;;;9.70;99.90;;;;;;4900023;28;20136;-83
2021/01/21 13:28:52;;;;;;;0.77;0.40;;;9.80;99.90;;;;;;4897218;28;20085;-84
2021/01/21 13:31:20;;;;;;;3.85;0.40;;;9.80;99.90;;;;;;4899764;28;20125;-83
2021/01/21 13:33:49;;;;;;;1.23;0.45;;;9.70;99.90;;;;;;4900651;28;20085;-84
2021/01/21 13:36:13;;;;;;;0.68;0.30;;;9.60;99.90;;;;;;4891568;28;20090;-84
2021/01/21 13:38:40;;;;;;;0.17;0.17;;;9.40;99.90;;;;;;4891719;28;20448;-82
2021/01/21 13:41:05;;;;;;;0.32;0.32;;;9.40;99.90;;;;;;4896819;28;20105;-83
2021/01/21 13:43:28;;;;;;;0.15;0.10;;;9.40;99.90;;;;;;4893603;28;20148;-84
2021/01/21 13:45:59;;;;;;;1.55;0.15;;;9.50;99.90;;;;;;4882681;28;20098;-84
2021/01/21 13:48:23;;;;;;;0.20;0.10;;;;;;;;;;4891260;28;20094;-84
2021/01/21 13:50:47;;;;;;;0.20;0.10;;;9.50;99.90;;;;;;4895676;28;20248;-83
2021/01/21 13:53:11;;;;;;;0.32;0.10;;;;;;;;;;4890315;28;20098;-84
2021/01/21 13:55:34;;;;;;;0.25;0.10;;;9.40;99.90;;;;;;4895871;28;20181;-84
2021/01/21 13:57:57;;;;;;;0.10;0.10;;;9.30;99.90;;;;;;4896399;28;20130;-83
2021/01/21 14:00:22;;;;;;;0.30;0.20;;;9.20;99.90;;;;;;4891419;28;20078;-84
2021/01/21 14:02:45;;;;;;;0.50;0.13;;;9.20;99.90;;;;;;4889916;28;20090;-83
2021/01/21 14:05:11;;;;;;;0.20;0.10;;;9.10;99.90;;;;;;4891059;28;20165;-83
2021/01/21 14:07:34;;;;;;;0.30;0.10;;;9.00;99.90;;;;;;4885348;28;20086;-83
2021/01/21 14:10:06;;;;;;;0.20;0.10;;;8.90;99.90;;;;;;4885006;28;20096;-84
2021/01/21 14:12:31;;;;;;;4.53;0.20;;;;;;;;;;4892855;28;20128;-85
2021/01/21 14:14:55;;;;;;;0.70;0.10;;;9.00;99.90;;;;;;4892122;28;20455;-83
2021/01/21 14:17:18;;;;;;;0.30;0.13;;;8.90;99.90;;;;;;4895772;28;20093;-83
2021/01/21 14:19:42;;;;;;;0.85;0.10;;;8.80;99.90;;;;;;4892731;28;20437;-84
2021/01/21 14:22:08;;;;;;;0.10;0.10;;;8.60;99.90;;;;;;4903083;28;20082;-83
2021/01/21 14:24:39;;;;;;;0.10;0.10;;;8.50;99.90;;;;;;4897724;28;20187;-84
2021/01/21 14:27:03;;;;;;;0.10;0.10;;;8.50;99.90;;;;;;4890636;28;20604;-83
2021/01/21 14:29:27;;;;;;;0.08;0.08;;;8.40;99.90;;;;;;4890727;28;20094;-84
2021/01/21 14:31:50;;;;;;;0.10;0.05;;;8.30;99.90;;;;;;4898661;28;20422;-84
2021/01/21 14:34:13;;;;;;;0.28;0.10;;;8.20;99.90;;;;;;4895665;28;20098;-83
2021/01/21 14:36:37;;;;;;;0.80;0.20;;;8.30;99.90;;;;;;4891325;28;20098;-82
2021/01/21 14:39:02;;;;;;;0.10;0.10;;;8.30;99.90;;;;;;4889753;28;20091;-83
2021/01/21 14:41:32;;;;;;;;;;;8.20;99.90;;;;;;4895371;28;20095;-82
2021/01/21 14:43:55;;;;;;;1.30;0.10;;;8.10;99.90;;;;;;4863141;28;19971;-82
2021/01/21 14:46:21;;;;;;;0.20;0.17;;;8.20;99.90;;;;;;4876499;28;21769;-82
2021/01/21 14:48:49;;;;;;;0.70;0.17;;;8.00;99.90;;;;;;4873159;28;20153;-82
2021/01/21 14:51:13;;;;;;;0.20;0.10;;;7.90;99.90;;;;;;4876197;28;20100;-82
2021/01/21 14:53:39;;;;;;;0.15;0.03;;;7.80;99.90;;;;;;4879221;28;20092;-83
2021/01/21 14:56:16;;;;;;;0.00;0.00;;;7.70;99.90;;;;;;4897684;28;20083;-83
2021/01/21 14:58:40;;;;;;;0.20;0.20;;;7.60;99.90;;;;;;4886129;28;20087;-80
2021/01/21 15:49:48;;;;;;;0.65;0.20;;;6.00;99.90;;;;;;4943746;27;20735;-80
2021/01/21 15:52:17;;;;;;;;;;;6.00;99.90;;;;;;4941431;27;20379;-82
2021/01/21 15:54:41;;;;;;;;;;;6.00;99.90;;;;;;4945546;27;19919;-81
2021/01/21 15:57:07;;;;;;;;;;;6.00;99.90;;;;;;4946030;27;19967;-81
2021/01/21 15:59:31;;;;;;;;;;;6.10;99.90;;;;;;4945641;27;19949;-84
2021/01/21 16:02:08;;;;;;;;;;;6.10;99.90;;;;;;4944536;27;19919;-83
2021/01/21 16:04:31;;;;;;;;;;;6.00;99.90;;;;;;4945439;27;19928;-82
2021/01/21 16:07:06;;;;;;;;;;;6.00;99.90;;;;;;4945806;27;19928;-83
2021/01/21 16:09:30;;;;;;;;;;;6.10;99.90;;;;;;4945005;27;19965;-83
2021/01/21 16:11:57;;;;;;;;;;;6.20;99.90;;;;;;4944582;27;20561;-84
2021/01/21 16:14:20;;;;;;;;;;;6.30;99.90;;;;;;4942768;27;20267;-84
2021/01/21 16:16:45;;;;;;;;;;;6.20;99.90;;;;;;4947135;27;20311;-84
2021/01/21 16:19:08;;;;;;;;;;;6.20;99.90;;;;;;4946600;27;19955;-84
2021/01/21 16:21:31;;;;;;;;;;;6.20;99.90;;;;;;4930260;27;19943;-84
2021/01/21 16:23:55;;;;;;;;;;;6.10;99.90;;;;;;4946553;27;19927;-83
2021/01/21 16:26:19;;;;;;;;;;;6.10;99.90;;;;;;4943349;27;19969;-83
2021/01/21 16:28:50;;;;;;;;;;;6.10;99.90;;;;;;4936783;27;20373;-83
2021/01/21 16:31:13;;;;;;;;;;;6.00;99.90;;;;;;4945164;27;19935;-84
2021/01/21 16:33:37;;;;;;;;;;;6.00;99.90;;;;;;4946925;27;19919;-84
2021/01/21 16:36:01;;;;;;;;;;;5.90;99.90;;;;;;4942963;27;19934;-83
2021/01/21 16:38:25;;;;;;;;;;;5.80;99.90;;;;;;4942927;27;19928;-84
2021/01/21 16:40:50;;;;;;;;;;;5.70;99.90;;;;;;4944496;27;19934;-84
2021/01/21 16:43:19;;;;;;;;;;;5.70;99.90;;;;;;4947369;27;19920;-85
2021/01/21 16:45:46;;;;;;;;;;;5.80;99.90;;;;;;4940242;27;20484;-83
2021/01/21 16:48:12;;;;;;;;;;;5.70;99.90;;;;;;4952067;27;19964;-85
2021/01/21 16:50:35;;;;;;;;;;;5.70;99.90;;;;;;4966684;27;20351;-85